createdAt,value
2018-06-01T00:04:53.195Z,55.0
2018-06-01T00:15:12.049Z,54.8
2018-06-01T00:36:11.387Z,55.2
2018-06-01T00:46:36.972Z,55.0
2018-06-01T00:56:51.713Z,55.7
2018-06-01T01:07:06.867Z,55.8
2018-06-01T01:27:34.868Z,55.3
2018-06-01T01:37:47.179Z,55.3
2018-06-01T01:58:22.479Z,55.8
2018-06-01T02:08:36.775Z,54.8
2018-06-01T02:19:22.980Z,54.8
2018-06-01T02:29:42.592Z,54.8
2018-06-01T02:39:57.531Z,54.8
2018-06-01T02:50:14.838Z,54.4
2018-06-01T03:00:41.308Z,54.3
2018-06-01T03:11:02.999Z,54.5
2018-06-01T03:31:32.190Z,54.7
2018-06-01T03:41:46.826Z,53.9
2018-06-01T03:52:01.665Z,53.9
2018-06-01T04:02:34.479Z,54.1
2018-06-01T04:23:13.027Z,54.5
2018-06-01T04:33:35.047Z,54.4
2018-06-01T04:44:27.249Z,54.4
2018-06-01T04:54:41.520Z,54.7
2018-06-01T05:05:07.896Z,54.1
2018-06-01T05:15:38.825Z,54.4
2018-06-01T05:26:11.650Z,54.7
2018-06-01T05:36:50.414Z,54.5
2018-06-01T05:47:13.531Z,54.6
2018-06-01T05:57:41.495Z,54.7
2018-06-01T06:07:58.346Z,54.3
2018-06-01T06:18:15.333Z,54.6
2018-06-01T06:29:22.526Z,55.5
2018-06-01T06:39:53.086Z,55.0
2018-06-01T06:50:16.735Z,54.7
2018-06-01T07:00:38.777Z,55.0
2018-06-01T07:21:28.560Z,54.6
2018-06-01T07:32:23.811Z,54.5
2018-06-01T07:42:45.198Z,54.9
2018-06-01T07:53:08.563Z,55.3
2018-06-01T08:13:54.879Z,54.3
2018-06-01T08:24:30.020Z,52.8
2018-06-01T08:34:53.506Z,52.7
2018-06-01T08:45:46.747Z,53.5
2018-06-01T09:17:21.370Z,55.5
2018-06-01T09:27:36.933Z,56.0
2018-06-01T09:39:15.426Z,56.2
2018-06-01T09:49:35.636Z,56.5
2018-06-01T10:01:46.459Z,56.8
2018-06-01T10:22:31.191Z,57.0
2018-06-01T10:32:57.726Z,57.6
2018-06-01T10:43:37.289Z,58.3
2018-06-01T10:54:38.793Z,57.8
2018-06-01T11:05:06.716Z,56.9
2018-06-01T11:15:33.640Z,57.8
2018-06-01T11:26:37.970Z,58.7
2018-06-01T11:37:11.212Z,59.0
2018-06-01T11:47:26.837Z,60.9
2018-06-01T12:08:42.536Z,61.4
2018-06-01T12:19:53.893Z,60.2
2018-06-01T12:30:20.807Z,59.1
2018-06-01T12:40:55.117Z,57.2
